createdAt,value
2022-12-23T00:01:23.568Z,10.02
2022-12-23T00:06:26.302Z,11.07
2022-12-23T00:11:28.932Z,17.02
2022-12-23T00:16:30.973Z,14.32
2022-12-23T00:21:32.781Z,14.98
2022-12-23T00:26:35.344Z,15.85
2022-12-23T00:31:37.106Z,18.10
2022-12-23T00:36:38.920Z,22.10
2022-12-23T00:41:59.163Z,19.20
2022-12-23T00:47:00.852Z,20.67
2022-12-23T00:52:03.634Z,18.77
2022-12-23T00:57:05.604Z,20.20
2022-12-23T01:02:26.243Z,21.65
2022-12-23T01:07:27.974Z,19.42
2022-12-23T01:12:29.651Z,20.83
2022-12-23T01:17:31.502Z,23.88
2022-12-23T01:22:33.135Z,22.00
2022-12-23T01:27:35.979Z,20.08
2022-12-23T01:32:37.604Z,20.33
2022-12-23T01:37:39.213Z,19.00
2022-12-23T01:42:43.501Z,18.23
2022-12-23T01:47:47.739Z,20.20
2022-12-23T01:53:19.162Z,19.65
2022-12-23T01:58:46.532Z,17.90
2022-12-23T02:03:51.517Z,18.80
2022-12-23T02:09:11.837Z,17.23
2022-12-23T02:15:09.834Z,16.80
2022-12-23T02:20:33.309Z,20.83
2022-12-23T02:25:34.868Z,17.05
2022-12-23T02:30:52.530Z,18.02
2022-12-23T02:35:56.981Z,17.90
2022-12-23T02:41:13.704Z,18.48
2022-12-23T02:46:27.498Z,17.13
2022-12-23T02:51:34.451Z,20.98
2022-12-23T02:56:39.613Z,17.23
2022-12-23T03:01:43.154Z,17.15
2022-12-23T03:06:48.461Z,17.60
2022-12-23T03:11:58.678Z,17.65
2022-12-23T03:17:06.278Z,19.48
2022-12-23T03:22:36.350Z,17.50
2022-12-23T03:27:49.077Z,17.52
2022-12-23T03:32:59.607Z,19.20
2022-12-23T03:38:03.109Z,19.85
2022-12-23T03:43:11.398Z,20.25
2022-12-23T03:48:27.415Z,19.65
2022-12-23T03:53:37.162Z,17.60
2022-12-23T03:58:45.155Z,16.90
2022-12-23T04:04:17.456Z,16.38
2022-12-23T04:09:22.626Z,17.92
2022-12-23T04:14:24.371Z,16.48
2022-12-23T04:19:26.031Z,15.98
2022-12-23T04:24:27.635Z,18.55
2022-12-23T04:29:29.360Z,19.23
2022-12-23T04:34:30.973Z,19.25
2022-12-23T04:39:32.932Z,21.40
2022-12-23T04:44:34.598Z,17.75
2022-12-23T04:49:36.200Z,21.42
2022-12-23T04:54:43.889Z,25.63
2022-12-23T04:59:47.527Z,25.33
2022-12-23T05:04:49.151Z,27.80
2022-12-23T05:09:50.772Z,32.55
2022-12-23T05:14:52.351Z,33.22
2022-12-23T05:19:54.045Z,39.97
2022-12-23T05:24:55.657Z,33.60
2022-12-23T05:29:57.509Z,34.15
2022-12-23T05:34:59.089Z,30.08
2022-12-23T05:40:00.851Z,29.40
2022-12-23T05:45:02.878Z,27.65
2022-12-23T05:50:04.870Z,24.98
2022-12-23T05:55:07.198Z,23.15
2022-12-23T06:00:09.743Z,20.70
2022-12-23T06:05:17.068Z,22.40
2022-12-23T06:10:18.846Z,23.45
2022-12-23T06:15:20.459Z,20.98
2022-12-23T06:20:22.142Z,21.35
2022-12-23T06:25:23.795Z,21.75
2022-12-23T06:30:25.621Z,20.80
2022-12-23T06:35:27.428Z,20.55
2022-12-23T06:40:29.706Z,18.85
2022-12-23T06:45:31.427Z,18.35
2022-12-23T06:50:33.587Z,18.13
2022-12-23T06:55:35.444Z,18.35
2022-12-23T07:00:37.040Z,19.90
2022-12-23T07:05:38.657Z,19.52
2022-12-23T07:10:40.275Z,20.52
2022-12-23T07:15:41.882Z,19.48
2022-12-23T07:20:43.520Z,20.60
2022-12-23T07:25:45.264Z,19.73
2022-12-23T07:30:47.390Z,19.92
2022-12-23T07:35:49.287Z,18.98
2022-12-23T07:40:51.276Z,20.42
2022-12-23T07:45:59.556Z,19.88
2022-12-23T07:51:03.151Z,20.27
2022-12-23T07:56:05.305Z,20.13
2022-12-23T08:01:08.166Z,18.63
2022-12-23T08:06:15.499Z,18.42
2022-12-23T08:11:17.861Z,17.30
2022-12-23T08:16:20.028Z,17.10
2022-12-23T08:21:22.523Z,16.52
2022-12-23T08:26:24.867Z,17.13
2022-12-23T08:31:31.988Z,17.52
2022-12-23T08:36:35.536Z,17.20
2022-12-23T08:41:41.471Z,19.10
2022-12-23T08:46:44.165Z,17.02
2022-12-23T08:51:46.374Z,16.85
2022-12-23T08:56:48.283Z,15.52
2022-12-23T09:01:50.059Z,16.85
2022-12-23T09:06:52.109Z,16.75
2022-12-23T09:11:53.683Z,15.73
2022-12-23T09:16:55.361Z,18.67
2022-12-23T09:21:56.987Z,16.83
2022-12-23T09:26:58.610Z,18.08
2022-12-23T09:32:00.415Z,16.30
2022-12-23T09:37:03.314Z,17.58
2022-12-23T09:42:20.155Z,18.42
2022-12-23T09:47:26.442Z,17.02
2022-12-23T09:52:40.530Z,18.13
2022-12-23T09:57:51.015Z,18.67
2022-12-23T10:03:18.902Z,17.92
2022-12-23T10:08:28.190Z,19.35
2022-12-23T10:13:36.918Z,18.60
2022-12-23T10:18:51.023Z,17.10
2022-12-23T10:23:55.239Z,16.88
2022-12-23T10:29:14.079Z,17.13
2022-12-23T10:34:33.445Z,16.55
2022-12-23T10:39:44.302Z,17.42
2022-12-23T10:45:02.608Z,17.85
2022-12-23T10:50:24.097Z,17.20
2022-12-23T10:55:34.046Z,17.60
2022-12-23T11:00:41.023Z,16.75
2022-12-23T11:05:44.753Z,17.90
2022-12-23T11:10:46.899Z,17.88
2022-12-23T11:15:48.497Z,16.85
2022-12-23T11:21:06.812Z,16.73
2022-12-23T11:26:11.765Z,16.37
2022-12-23T11:31:14.670Z,16.10
2022-12-23T11:36:24.792Z,16.25
2022-12-23T11:41:29.280Z,17.10
2022-12-23T11:46:33.117Z,17.30
2022-12-23T11:51:34.796Z,17.88
2022-12-23T11:56:40.486Z,16.48
2022-12-23T12:01:47.953Z,18.92
2022-12-23T12:06:56.376Z,18.42
2022-12-23T12:12:17.421Z,19.50
2022-12-23T12:17:43.210Z,16.33
2022-12-23T12:22:52.843Z,16.65
2022-12-23T12:28:00.689Z,16.58
2022-12-23T12:33:05.365Z,16.25
2022-12-23T12:38:18.339Z,16.35
2022-12-23T12:43:33.423Z,15.43
2022-12-23T12:48:50.607Z,15.93
2022-12-23T12:54:05.234Z,15.65
2022-12-23T12:59:15.906Z,15.20
2022-12-23T13:04:52.013Z,15.98
2022-12-23T13:10:12.502Z,16.13
2022-12-23T13:15:32.613Z,17.25
2022-12-23T13:20:45.235Z,15.35
2022-12-23T13:25:54.811Z,16.80
2022-12-23T13:31:14.034Z,15.93
2022-12-23T13:36:46.269Z,15.80
2022-12-23T13:41:53.211Z,14.90
2022-12-23T13:47:04.122Z,13.02
2022-12-23T13:52:11.595Z,14.85
2022-12-23T13:57:28.038Z,14.80
2022-12-23T14:02:35.634Z,14.15
2022-12-23T14:07:37.385Z,14.25
2022-12-23T14:12:42.311Z,14.60
2022-12-23T14:18:14.453Z,13.70
2022-12-23T14:23:51.077Z,14.65
2022-12-23T14:28:58.332Z,15.50
2022-12-23T14:34:18.046Z,14.40
2022-12-23T14:39:34.839Z,14.23
2022-12-23T14:44:36.375Z,15.02
2022-12-23T14:49:45.588Z,17.77
2022-12-23T14:55:13.269Z,17.98
2022-12-23T15:00:10.516Z,19.52
2022-12-23T15:05:12.997Z,15.45
2022-12-23T15:10:25.525Z,16.80
2022-12-23T15:15:30.081Z,16.98
2022-12-23T15:20:32.985Z,15.88
2022-12-23T15:25:39.364Z,15.10
2022-12-23T15:30:49.525Z,13.27
2022-12-23T15:35:51.693Z,14.65
2022-12-23T15:41:06.532Z,13.45
2022-12-23T15:46:26.810Z,14.43
2022-12-23T15:56:57.590Z,14.55
2022-12-23T16:01:59.552Z,15.80
2022-12-23T16:07:02.244Z,14.15
2022-12-23T16:12:19.026Z,14.35
2022-12-23T16:17:36.885Z,17.52
2022-12-23T16:22:38.683Z,16.13
2022-12-23T16:27:48.401Z,18.95
2022-12-23T16:32:53.100Z,17.75
2022-12-23T16:38:08.592Z,21.08
2022-12-23T16:43:10.609Z,50.10
2022-12-23T16:48:18.303Z,24.55
2022-12-23T16:53:20.124Z,55.63
2022-12-23T16:58:21.790Z,38.22
2022-12-23T17:03:23.480Z,25.35
2022-12-23T17:08:25.284Z,21.15
2022-12-23T17:13:26.923Z,19.23
2022-12-23T17:18:28.541Z,18.88
2022-12-23T17:23:32.445Z,19.02
2022-12-23T17:28:34.118Z,17.63
2022-12-23T17:33:35.931Z,18.05
2022-12-23T17:38:37.608Z,19.83
2022-12-23T17:43:39.213Z,21.92
2022-12-23T17:48:41.379Z,18.10
2022-12-23T17:53:45.400Z,20.35
2022-12-23T17:58:49.980Z,20.42
2022-12-23T18:03:52.255Z,19.98
2022-12-23T18:08:54.170Z,19.83
2022-12-23T18:13:55.933Z,19.23
2022-12-23T18:18:57.616Z,20.85
2022-12-23T18:23:59.887Z,20.13
2022-12-23T18:29:01.479Z,19.92
2022-12-23T18:34:04.075Z,19.10
2022-12-23T18:39:05.845Z,19.05
2022-12-23T18:44:18.262Z,22.35
2022-12-23T18:49:19.902Z,17.13
2022-12-23T18:54:21.959Z,20.63
2022-12-23T18:59:29.526Z,21.17
2022-12-23T19:04:31.946Z,20.58
2022-12-23T19:09:33.685Z,21.00
2022-12-23T19:14:35.573Z,19.88
2022-12-23T19:19:37.448Z,17.92
2022-12-23T19:24:51.939Z,19.90
2022-12-23T19:30:01.453Z,19.20
2022-12-23T19:35:03.253Z,52.17
2022-12-23T19:40:06.203Z,35.88
2022-12-23T19:45:09.483Z,22.23
2022-12-23T19:50:12.267Z,59.30
2022-12-23T19:55:15.607Z,77.88
2022-12-23T20:00:17.302Z,25.05
2022-12-23T20:05:19.110Z,22.58
2022-12-23T20:10:20.712Z,23.73
2022-12-23T20:15:22.601Z,22.05
2022-12-23T20:20:24.268Z,19.88
2022-12-23T20:25:25.915Z,20.15
2022-12-23T20:30:27.850Z,21.40
2022-12-23T20:35:32.630Z,22.92
2022-12-23T20:40:34.307Z,21.90
2022-12-23T20:45:35.955Z,20.60
2022-12-23T20:50:40.072Z,20.63
2022-12-23T20:55:41.836Z,20.13
2022-12-23T21:00:43.493Z,21.75
2022-12-23T21:05:45.368Z,19.63
2022-12-23T21:10:53.680Z,24.27
2022-12-23T21:16:01.959Z,21.77
2022-12-23T21:21:05.115Z,24.05
2022-12-23T21:26:17.469Z,24.40
2022-12-23T21:31:21.474Z,24.15
2022-12-23T21:36:25.883Z,25.95
2022-12-23T21:41:30.194Z,27.40
2022-12-23T21:46:32.110Z,21.77
2022-12-23T21:51:40.253Z,21.05
2022-12-23T21:56:43.210Z,24.52
2022-12-23T22:01:45.065Z,24.27
2022-12-23T22:06:47.150Z,25.17
2022-12-23T22:11:48.799Z,24.73
2022-12-23T22:16:50.724Z,24.75
2022-12-23T22:21:52.567Z,23.25
2022-12-23T22:26:54.216Z,24.48
2022-12-23T22:31:55.930Z,23.38
2022-12-23T22:36:57.595Z,22.08
2022-12-23T22:41:59.210Z,21.45
2022-12-23T22:47:00.844Z,22.70
2022-12-23T22:52:02.772Z,21.83
2022-12-23T22:57:05.775Z,21.88
2022-12-23T23:02:07.786Z,19.98
2022-12-23T23:07:09.444Z,20.30
2022-12-23T23:12:11.253Z,18.13
2022-12-23T23:17:12.851Z,19.20
2022-12-23T23:22:15.664Z,20.80
2022-12-23T23:27:17.606Z,20.45
2022-12-23T23:32:19.443Z,20.35
2022-12-23T23:37:21.071Z,21.38
2022-12-23T23:42:22.694Z,21.45
2022-12-23T23:47:24.271Z,22.50
2022-12-23T23:52:25.930Z,20.90
2022-12-23T23:57:27.628Z,21.02
